Time;durP1;ratioP1;P1;durP2;ratioP2;P2;SDS_P1;SDS_P2;PMS_P1;PMS_P2;Temp;Humidity;BMP_temperature;BMP_pressure;BME280_temperature;BME280_humidity;BME280_pressure;Samples;Min_cycle;Max_cycle;Signal;HPM_P1;HPM_P2
2022/06/18 00:00:44;;;;;;;8.07;3.55;;;23.00;65.40;;;;;;5030991;28;20042;-84
2022/06/18 00:03:12;;;;;;;6.60;3.20;;;23.00;65.50;;;;;;5028735;28;20061;-84
2022/06/18 00:05:41;;;;;;;10.55;3.75;;;22.90;65.50;;;;;;5030352;28;20069;-84
2022/06/18 00:08:16;;;;;;;8.05;3.45;;;22.90;65.60;;;;;;5030436;28;20186;-84
2022/06/18 00:10:44;;;;;;;6.88;3.42;;;22.90;65.60;;;;;;5029885;28;20100;-84
2022/06/18 00:16:00;;;;;;;5.25;3.17;;;22.90;65.60;;;;;;5028092;28;20180;-84
2022/06/18 00:18:28;;;;;;;5.25;3.45;;;22.80;65.60;;;;;;5030647;28;20049;-84
2022/06/18 00:20:58;;;;;;;9.68;3.40;;;22.80;65.70;;;;;;5030049;28;20064;-84
2022/06/18 00:23:25;;;;;;;6.45;3.30;;;22.80;65.70;;;;;;5028571;28;20045;-84
2022/06/18 00:25:53;;;;;;;8.90;3.72;;;22.80;65.70;;;;;;5029714;28;20107;-84
2022/06/18 00:28:21;;;;;;;6.65;3.80;;;22.70;65.80;;;;;;5030215;28;20411;-84
2022/06/18 00:30:50;;;;;;;6.88;3.38;;;22.70;65.70;;;;;;5031998;28;20099;-84
2022/06/18 00:33:18;;;;;;;5.95;3.60;;;22.60;65.80;;;;;;5029879;28;20568;-84
2022/06/18 00:35:47;;;;;;;5.55;3.47;;;22.60;65.80;;;;;;5029947;28;20053;-84
2022/06/18 00:38:24;;;;;;;7.80;3.92;;;22.60;65.90;;;;;;5028230;28;20058;-84
2022/06/18 00:40:52;;;;;;;6.50;3.70;;;22.50;65.90;;;;;;5028185;28;20045;-84
2022/06/18 00:43:25;;;;;;;7.72;3.25;;;22.50;66.00;;;;;;5030024;28;20053;-84
2022/06/18 00:45:59;;;;;;;5.32;3.08;;;22.40;66.00;;;;;;5027470;28;20494;-84
2022/06/18 00:48:37;;;;;;;7.43;3.58;;;22.40;66.10;;;;;;5029136;28;20077;-84
2022/06/18 00:51:10;;;;;;;4.70;3.17;;;22.40;66.10;;;;;;5029830;28;20075;-84
2022/06/18 00:53:54;;;;;;;5.88;3.30;;;22.40;66.20;;;;;;5029845;28;20103;-84
2022/06/18 00:56:44;;;;;;;;;;;22.40;66.20;;;;;;5030411;28;20136;-84
2022/06/18 00:59:22;;;;;;;7.28;3.30;;;22.30;66.30;;;;;;5029815;28;20396;-84
2022/06/18 01:01:50;;;;;;;6.57;3.50;;;22.30;66.30;;;;;;5029764;28;20513;-84
2022/06/18 01:04:30;;;;;;;6.18;3.25;;;22.30;66.40;;;;;;5032734;28;20137;-84
2022/06/18 01:07:18;;;;;;;7.32;3.60;;;22.20;66.40;;;;;;5031236;28;20104;-84
2022/06/18 01:09:48;;;;;;;9.10;3.20;;;22.10;66.40;;;;;;5033955;28;20057;-84
2022/06/18 01:12:15;;;;;;;8.27;3.53;;;22.10;66.50;;;;;;5033175;28;20049;-83
2022/06/18 01:14:42;;;;;;;5.97;3.50;;;22.10;66.50;;;;;;5033092;28;20053;-83
2022/06/18 01:17:10;;;;;;;7.47;3.50;;;22.10;66.50;;;;;;5031532;28;20045;-83
2022/06/18 01:19:47;;;;;;;6.20;3.30;;;22.00;66.60;;;;;;5031727;28;20100;-83
2022/06/18 01:22:36;;;;;;;6.13;3.65;;;22.00;66.60;;;;;;5033064;28;20050;-83
2022/06/18 01:25:06;;;;;;;7.00;3.90;;;21.90;66.70;;;;;;5030828;28;20057;-83
2022/06/18 01:27:37;;;;;;;7.55;3.65;;;21.90;66.70;;;;;;5034222;28;20050;-83
2022/06/18 01:30:14;;;;;;;4.93;3.17;;;21.90;66.70;;;;;;5032863;28;20092;-83
2022/06/18 01:32:43;;;;;;;10.88;3.50;;;21.90;66.80;;;;;;5032656;28;20285;-83
2022/06/18 01:35:11;;;;;;;6.22;3.40;;;21.90;66.80;;;;;;5032780;28;20457;-83
2022/06/18 01:37:38;;;;;;;7.55;3.30;;;21.80;66.80;;;;;;5032448;28;20514;-83
2022/06/18 01:40:09;;;;;;;5.13;3.17;;;21.80;66.80;;;;;;5033405;28;20057;-83
2022/06/18 01:42:41;;;;;;;7.55;3.38;;;21.80;66.80;;;;;;5032101;28;20045;-83
2022/06/18 01:45:21;;;;;;;5.20;3.42;;;21.70;66.90;;;;;;5032594;28;20099;-83
2022/06/18 01:47:59;;;;;;;5.90;3.30;;;21.70;66.90;;;;;;5032593;28;20069;-83
2022/06/18 01:50:38;;;;;;;6.05;3.58;;;21.60;66.90;;;;;;5032307;28;20465;-83
2022/06/18 01:53:21;;;;;;;7.35;3.47;;;21.60;67.00;;;;;;5031930;28;20068;-83
2022/06/18 01:56:00;;;;;;;6.80;3.38;;;21.60;67.00;;;;;;5030930;28;20053;-83
2022/06/18 01:58:42;;;;;;;5.68;3.42;;;21.50;67.00;;;;;;5015354;28;20107;-83
2022/06/18 02:01:17;;;;;;;5.65;3.40;;;21.50;67.10;;;;;;5032824;28;20095;-83
2022/06/18 02:03:44;;;;;;;6.90;3.63;;;21.50;67.10;;;;;;5032916;28;20499;-83
2022/06/18 02:06:12;;;;;;;6.18;3.30;;;21.40;67.10;;;;;;5032220;28;20107;-83
2022/06/18 02:08:39;;;;;;;6.03;3.30;;;21.40;67.20;;;;;;5031618;28;20041;-83
2022/06/18 02:11:10;;;;;;;11.00;4.05;;;21.40;67.20;;;;;;5032183;28;20045;-83
2022/06/18 02:13:42;;;;;;;9.60;3.90;;;21.40;67.30;;;;;;5031494;28;20087;-83
2022/06/18 02:16:15;;;;;;;10.80;3.20;;;21.40;67.30;;;;;;5032522;28;20045;-83
2022/06/18 02:18:45;;;;;;;9.35;3.47;;;21.30;67.30;;;;;;5032472;28;20119;-83
2022/06/18 02:21:14;;;;;;;6.22;3.60;;;21.30;67.30;;;;;;5029929;28;20068;-83
2022/06/18 02:23:41;;;;;;;6.32;3.58;;;21.20;67.40;;;;;;5031987;28;20108;-83
2022/06/18 02:26:08;;;;;;;8.52;3.10;;;21.30;67.40;;;;;;5031724;28;20097;-83
2022/06/18 02:28:43;;;;;;;8.25;3.60;;;21.20;67.40;;;;;;5031848;28;20049;-83
2022/06/18 02:31:16;;;;;;;7.07;3.33;;;21.20;67.50;;;;;;5032111;28;20053;-83
2022/06/18 02:33:48;;;;;;;;;;;21.10;67.50;;;;;;5032658;28;20050;-83
2022/06/18 02:36:28;;;;;;;7.30;3.35;;;21.10;67.60;;;;;;5029771;28;20344;-83
2022/06/18 02:39:07;;;;;;;8.95;3.30;;;21.10;67.60;;;;;;5030015;28;20050;-83
2022/06/18 02:41:40;;;;;;;9.65;3.50;;;21.10;67.70;;;;;;5031599;28;20100;-83
2022/06/18 02:44:07;;;;;;;7.80;3.67;;;21.00;67.70;;;;;;5031441;28;20046;-83
2022/06/18 02:46:34;;;;;;;8.27;3.40;;;21.00;67.70;;;;;;5031396;28;20049;-83
2022/06/18 02:49:07;;;;;;;9.68;3.70;;;20.90;67.70;;;;;;5032805;28;20557;-83
2022/06/18 02:51:36;;;;;;;8.60;3.37;;;20.90;67.70;;;;;;5032472;28;20053;-83
2022/06/18 02:54:04;;;;;;;6.50;3.83;;;20.90;67.80;;;;;;5031190;28;20049;-83
2022/06/18 02:56:31;;;;;;;9.77;3.78;;;20.90;67.80;;;;;;5031139;28;20041;-83
2022/06/18 02:58:58;;;;;;;6.07;3.47;;;20.90;67.80;;;;;;5029879;28;20100;-83
2022/06/18 03:01:26;;;;;;;6.82;3.88;;;20.90;67.90;;;;;;5015456;28;20049;-83
2022/06/18 03:03:57;;;;;;;10.52;4.05;;;20.80;67.90;;;;;;5032943;28;20057;-83
2022/06/18 03:06:27;;;;;;;7.20;3.63;;;20.80;67.90;;;;;;5029295;28;20581;-83
2022/06/18 03:08:56;;;;;;;7.32;3.45;;;20.80;67.90;;;;;;5031000;28;20107;-83
2022/06/18 03:14:14;;;;;;;6.20;3.47;;;20.80;68.00;;;;;;5029503;28;20518;-83
2022/06/18 03:16:42;;;;;;;8.77;3.97;;;20.70;68.00;;;;;;5029443;28;20045;-83
2022/06/18 03:19:26;;;;;;;5.88;3.75;;;20.70;68.00;;;;;;5031030;28;20054;-82
2022/06/18 03:21:57;;;;;;;8.65;3.83;;;20.70;68.10;;;;;;5028459;28;20106;-83
2022/06/18 03:24:24;;;;;;;9.60;4.00;;;20.70;68.10;;;;;;5031176;28;20060;-83
2022/06/18 03:26:52;;;;;;;6.38;3.50;;;20.60;68.10;;;;;;5029808;28;20049;-83
2022/06/18 03:29:19;;;;;;;8.57;3.92;;;20.60;68.10;;;;;;5030689;28;20072;-83
2022/06/18 03:31:46;;;;;;;6.90;3.72;;;20.60;68.10;;;;;;5030821;28;20552;-83
2022/06/18 03:34:13;;;;;;;7.35;3.60;;;20.60;68.20;;;;;;5030206;28;20183;-82
2022/06/18 03:36:40;;;;;;;5.97;3.40;;;20.60;68.20;;;;;;5032494;28;20050;-83
2022/06/18 03:39:07;;;;;;;9.82;3.55;;;20.60;68.20;;;;;;5028919;28;20061;-83
2022/06/18 03:41:34;;;;;;;6.75;3.88;;;20.50;68.20;;;;;;5030683;28;20072;-83
2022/06/18 03:44:01;;;;;;;8.52;3.78;;;20.50;68.30;;;;;;5030473;28;20107;-83
2022/06/18 03:46:28;;;;;;;10.05;3.63;;;20.50;68.30;;;;;;5030599;28;20038;-83
2022/06/18 03:48:59;;;;;;;5.00;3.30;;;20.50;68.30;;;;;;5032000;28;20413;-83
2022/06/18 03:51:27;;;;;;;6.57;3.50;;;20.50;68.30;;;;;;5029574;28;20050;-83
2022/06/18 03:53:55;;;;;;;8.13;3.80;;;20.40;68.40;;;;;;5028678;28;20079;-83
2022/06/18 03:56:25;;;;;;;6.28;3.58;;;20.40;68.40;;;;;;5028966;28;20046;-83
2022/06/18 03:58:53;;;;;;;8.43;3.60;;;20.40;68.40;;;;;;5030457;28;20060;-83
2022/06/18 04:01:27;;;;;;;7.88;3.58;;;20.40;68.40;;;;;;5030400;28;20049;-83
2022/06/18 04:03:54;;;;;;;5.50;3.60;;;20.40;68.50;;;;;;5027606;28;20056;-83
2022/06/18 04:06:21;;;;;;;5.70;3.45;;;20.40;68.50;;;;;;5030565;28;20072;-83
2022/06/18 04:08:48;;;;;;;6.72;3.38;;;20.40;68.50;;;;;;5030284;28;20563;-83
2022/06/18 04:11:16;;;;;;;6.30;3.38;;;20.30;68.60;;;;;;5030253;28;20094;-83
2022/06/18 04:13:43;;;;;;;7.25;3.47;;;20.40;68.60;;;;;;5030289;28;20057;-83
2022/06/18 04:16:10;;;;;;;6.88;3.53;;;20.30;68.60;;;;;;5031099;28;20045;-83
2022/06/18 04:18:38;;;;;;;5.00;3.22;;;20.30;68.70;;;;;;5029708;28;20052;-83
2022/06/18 04:21:05;;;;;;;9.52;3.63;;;20.30;68.70;;;;;;5030240;28;20099;-83
2022/06/18 04:23:32;;;;;;;9.35;3.83;;;20.20;68.70;;;;;;5030145;28;20079;-83
2022/06/18 04:25:59;;;;;;;5.78;3.30;;;20.30;68.70;;;;;;5029935;28;20575;-83
2022/06/18 04:28:27;;;;;;;7.22;3.95;;;20.20;68.80;;;;;;5014595;28;20049;-83
2022/06/18 04:30:54;;;;;;;7.97;3.60;;;20.20;68.90;;;;;;5032184;28;20060;-83
2022/06/18 04:33:21;;;;;;;8.75;3.38;;;20.20;68.90;;;;;;5028266;28;20502;-83
2022/06/18 04:35:53;;;;;;;7.03;3.67;;;20.20;68.90;;;;;;5028631;28;20502;-83
2022/06/18 04:38:20;;;;;;;8.70;3.38;;;20.20;69.00;;;;;;5033238;28;20120;-83
2022/06/18 04:40:48;;;;;;;8.45;3.60;;;20.20;69.00;;;;;;5033864;28;20053;-83
2022/06/18 04:43:25;;;;;;;8.57;3.80;;;20.20;69.00;;;;;;5033880;28;20140;-83
2022/06/18 04:45:54;;;;;;;9.43;3.83;;;20.10;69.10;;;;;;5035616;28;20045;-83
2022/06/18 04:48:20;;;;;;;12.93;3.90;;;20.10;69.10;;;;;;5033800;28;20061;-83
2022/06/18 04:50:47;;;;;;;12.38;3.78;;;20.10;69.20;;;;;;5033659;28;20456;-83
2022/06/18 04:53:15;;;;;;;8.75;3.88;;;20.10;69.20;;;;;;5033526;28;20119;-83
2022/06/18 04:55:41;;;;;;;8.13;3.70;;;20.10;69.30;;;;;;5033672;28;20099;-84
2022/06/18 04:58:10;;;;;;;11.50;3.83;;;20.10;69.30;;;;;;5034192;28;20049;-82
2022/06/18 05:00:39;;;;;;;10.98;3.50;;;20.10;69.30;;;;;;5032785;28;20430;-83
2022/06/18 05:03:06;;;;;;;7.75;3.50;;;20.10;69.30;;;;;;5033285;28;20107;-83
2022/06/18 05:05:33;;;;;;;9.52;3.83;;;20.10;69.40;;;;;;5033387;28;20038;-82
2022/06/18 05:08:00;;;;;;;9.70;3.88;;;20.10;69.40;;;;;;5033424;28;20139;-82
2022/06/18 05:10:27;;;;;;;6.32;3.53;;;20.10;69.50;;;;;;5031923;28;20103;-83
2022/06/18 05:12:54;;;;;;;11.00;3.58;;;20.10;69.50;;;;;;5030898;28;20041;-83
2022/06/18 05:15:21;;;;;;;8.70;3.65;;;20.10;69.60;;;;;;5031359;28;20453;-83
2022/06/18 05:17:48;;;;;;;8.25;3.85;;;20.10;69.60;;;;;;5033132;28;20564;-83
2022/06/18 05:20:19;;;;;;;7.63;3.78;;;20.10;69.70;;;;;;5033006;28;20053;-83
2022/06/18 05:22:46;;;;;;;7.97;3.55;;;20.10;69.70;;;;;;5033077;28;20525;-83
2022/06/18 05:25:14;;;;;;;7.88;3.80;;;20.10;69.70;;;;;;5033001;28;20053;-83
2022/06/18 05:27:42;;;;;;;12.32;3.80;;;20.10;69.70;;;;;;5034884;28;20049;-83
2022/06/18 05:30:13;;;;;;;9.45;3.78;;;20.10;69.80;;;;;;5032650;28;20049;-83
2022/06/18 05:32:41;;;;;;;8.55;4.30;;;20.20;69.80;;;;;;5032748;28;20050;-83
2022/06/18 05:35:08;;;;;;;10.35;3.95;;;20.20;69.80;;;;;;5032805;28;20107;-83
2022/06/18 05:37:37;;;;;;;15.75;3.55;;;20.20;69.90;;;;;;5032963;28;20045;-83
2022/06/18 05:40:05;;;;;;;11.70;3.60;;;20.20;70.00;;;;;;5033789;28;20494;-83
2022/06/18 05:42:33;;;;;;;8.18;3.63;;;20.20;70.00;;;;;;5033827;28;20084;-83
2022/06/18 05:44:59;;;;;;;7.40;3.60;;;20.30;70.10;;;;;;5032315;28;20046;-83
2022/06/18 05:47:33;;;;;;;5.88;3.67;;;20.30;70.10;;;;;;5032511;28;20049;-83
2022/06/18 05:50:02;;;;;;;10.32;4.00;;;20.30;70.10;;;;;;5030456;28;20046;-83
2022/06/18 05:52:30;;;;;;;8.48;3.63;;;20.30;70.10;;;;;;5031156;28;20095;-83
2022/06/18 05:54:57;;;;;;;7.63;3.70;;;20.40;70.10;;;;;;5034228;28;20057;-83
2022/06/18 05:57:25;;;;;;;6.95;3.40;;;20.40;70.10;;;;;;5032714;28;20045;-83
2022/06/18 05:59:52;;;;;;;10.50;3.63;;;20.40;70.20;;;;;;5031754;28;20049;-83
2022/06/18 06:02:20;;;;;;;8.57;3.38;;;20.40;70.10;;;;;;5032229;28;20072;-83
2022/06/18 06:04:48;;;;;;;6.13;3.50;;;20.40;70.10;;;;;;5032344;28;20041;-83
2022/06/18 06:07:16;;;;;;;5.63;3.28;;;20.50;70.00;;;;;;5032367;28;20060;-83
2022/06/18 06:12:29;;;;;;;5.97;3.08;;;20.50;70.00;;;;;;5032818;28;20372;-81
2022/06/18 06:14:56;;;;;;;4.80;3.30;;;20.70;70.00;;;;;;5029940;28;20050;-83
2022/06/18 06:17:25;;;;;;;6.07;3.28;;;20.70;70.00;;;;;;5031261;28;20042;-83
2022/06/18 06:20:00;;;;;;;5.10;3.30;;;20.70;70.00;;;;;;5027588;28;20568;-83
2022/06/18 06:22:28;;;;;;;6.80;3.80;;;20.80;70.00;;;;;;5040690;28;20417;-83
2022/06/18 06:24:55;;;;;;;6.80;3.22;;;20.90;70.00;;;;;;5028837;28;20576;-83
2022/06/18 06:27:25;;;;;;;6.90;3.38;;;20.90;69.90;;;;;;5030333;28;20092;-83
2022/06/18 06:29:55;;;;;;;6.47;3.33;;;21.00;69.90;;;;;;5028526;28;20083;-83
2022/06/18 06:32:22;;;;;;;6.57;3.20;;;21.00;69.80;;;;;;5028698;28;20452;-83
2022/06/18 06:34:49;;;;;;;4.95;3.13;;;21.10;69.80;;;;;;5030527;28;20053;-83
2022/06/18 06:37:16;;;;;;;7.00;3.50;;;21.20;69.70;;;;;;5030430;28;20107;-83
2022/06/18 06:39:43;;;;;;;6.90;3.50;;;21.30;69.60;;;;;;5031562;28;20053;-83
2022/06/18 06:42:10;;;;;;;5.90;3.30;;;21.30;69.60;;;;;;5028064;28;20099;-83
2022/06/18 06:44:37;;;;;;;6.43;3.40;;;21.40;69.50;;;;;;5027052;28;20112;-84
2022/06/18 06:47:04;;;;;;;7.03;3.10;;;21.40;69.40;;;;;;5028418;28;20041;-83
2022/06/18 06:49:30;;;;;;;6.18;3.13;;;21.50;69.30;;;;;;5028519;28;20046;-83
2022/06/18 06:51:57;;;;;;;5.63;3.35;;;21.60;69.20;;;;;;5032206;28;20049;-83
2022/06/18 06:54:24;;;;;;;6.38;3.00;;;21.60;69.20;;;;;;5029159;28;20052;-83
2022/06/18 06:59:37;;;;;;;5.32;3.20;;;21.90;69.00;;;;;;5028221;28;20107;-83
2022/06/18 07:02:12;;;;;;;6.20;3.42;;;21.90;68.80;;;;;;5027945;28;20053;-83
2022/06/18 07:04:39;;;;;;;5.72;2.58;;;22.00;68.70;;;;;;5028012;28;20045;-83
2022/06/18 07:07:06;;;;;;;5.63;3.10;;;22.10;68.70;;;;;;5030413;28;20107;-83
2022/06/18 07:09:33;;;;;;;5.28;3.17;;;22.20;68.60;;;;;;5029852;28;20577;-83
2022/06/18 07:12:00;;;;;;;6.50;3.13;;;22.30;68.50;;;;;;5027464;28;20076;-83
2022/06/18 07:14:27;;;;;;;5.47;2.90;;;22.40;68.40;;;;;;5027910;28;20072;-83
2022/06/18 07:16:55;;;;;;;4.72;2.70;;;22.40;68.30;;;;;;5027933;28;20092;-83
2022/06/18 07:19:22;;;;;;;5.47;3.08;;;22.60;68.20;;;;;;5027853;28;20042;-83
2022/06/18 07:21:52;;;;;;;4.85;2.65;;;22.60;68.10;;;;;;5031454;28;20073;-83
2022/06/18 07:24:20;;;;;;;5.55;3.30;;;22.70;68.10;;;;;;5026620;28;20514;-83
2022/06/18 07:26:47;;;;;;;5.35;2.80;;;22.80;68.00;;;;;;5027043;28;20430;-83
2022/06/18 07:29:20;;;;;;;6.07;2.97;;;22.90;67.90;;;;;;5027495;28;20045;-83
2022/06/18 07:31:48;;;;;;;4.88;2.80;;;23.00;67.80;;;;;;5027590;28;20056;-83
2022/06/18 07:34:16;;;;;;;5.22;2.72;;;23.10;67.70;;;;;;5029696;28;20065;-83
2022/06/18 07:36:43;;;;;;;5.97;2.75;;;23.20;67.60;;;;;;5030454;28;20136;-83
2022/06/18 07:39:10;;;;;;;6.50;3.15;;;23.30;67.50;;;;;;5027803;28;20042;-83
2022/06/18 07:41:45;;;;;;;8.38;3.13;;;23.40;67.40;;;;;;5025839;28;20129;-83
2022/06/18 07:44:12;;;;;;;6.97;3.42;;;23.40;67.20;;;;;;5029226;28;20052;-83
2022/06/18 07:46:39;;;;;;;6.20;2.75;;;23.50;67.10;;;;;;5027427;28;20237;-83
2022/06/18 07:49:07;;;;;;;5.43;2.70;;;23.60;66.90;;;;;;5029784;28;20081;-84
2022/06/18 07:51:34;;;;;;;6.15;2.75;;;23.70;66.80;;;;;;5029288;28;20530;-83
2022/06/18 07:54:01;;;;;;;5.05;2.70;;;23.80;66.60;;;;;;5027181;28;20502;-83
2022/06/18 07:56:30;;;;;;;5.43;2.90;;;23.90;66.50;;;;;;5026942;28;20042;-83
2022/06/18 07:58:56;;;;;;;7.05;2.90;;;24.00;66.30;;;;;;5027215;28;20041;-83
2022/06/18 08:01:24;;;;;;;7.25;2.97;;;24.10;66.20;;;;;;5028209;28;20392;-83
2022/06/18 08:03:50;;;;;;;4.85;2.60;;;24.20;66.10;;;;;;5031309;28;20045;-83
2022/06/18 08:06:18;;;;;;;5.15;2.75;;;24.30;65.90;;;;;;5027256;28;20058;-83
2022/06/18 08:08:45;;;;;;;5.65;2.65;;;24.40;65.80;;;;;;5026910;28;20053;-83
2022/06/18 08:11:15;;;;;;;7.25;3.05;;;24.40;65.70;;;;;;5028409;28;20099;-83
2022/06/18 08:13:43;;;;;;;4.78;2.92;;;24.50;65.60;;;;;;5031431;28;20049;-83
2022/06/18 08:16:13;;;;;;;6.50;2.72;;;24.70;65.40;;;;;;5033987;28;20049;-83
2022/06/18 08:18:41;;;;;;;4.63;2.70;;;24.80;65.30;;;;;;5033661;28;20046;-83
2022/06/18 08:21:17;;;;;;;6.70;2.85;;;24.80;65.20;;;;;;5030975;28;20103;-85
2022/06/18 08:23:45;;;;;;;6.47;2.75;;;24.90;65.30;;;;;;5029371;28;20490;-83
2022/06/18 08:26:12;;;;;;;4.32;2.67;;;25.10;65.20;;;;;;5030628;28;20053;-83
2022/06/18 08:28:40;;;;;;;5.28;2.70;;;25.20;65.10;;;;;;5030449;28;20052;-84
2022/06/18 08:31:08;;;;;;;6.60;2.70;;;25.20;64.90;;;;;;5032957;28;20053;-84
2022/06/18 08:33:35;;;;;;;8.68;2.72;;;25.30;64.80;;;;;;5032693;28;20061;-84
2022/06/18 08:36:08;;;;;;;4.30;2.58;;;25.40;64.70;;;;;;5030439;28;20050;-84
2022/06/18 08:38:37;;;;;;;5.57;2.80;;;25.50;64.60;;;;;;5028748;28;20049;-85
2022/06/18 08:41:10;;;;;;;4.75;2.80;;;25.60;64.50;;;;;;5030466;28;20052;-85
2022/06/18 08:44:02;;;;;;;8.27;3.17;;;25.70;64.40;;;;;;5030315;28;20076;-84
2022/06/18 08:46:58;;;;;;;5.72;3.10;;;25.80;64.30;;;;;;5015007;28;20517;-84
2022/06/18 08:49:43;;;;;;;6.88;3.08;;;25.90;64.20;;;;;;5014926;28;20049;-84
2022/06/18 08:52:31;;;;;;;5.40;2.80;;;26.00;64.00;;;;;;5030561;28;20103;-84
2022/06/18 08:55:13;;;;;;;6.95;3.30;;;26.10;63.90;;;;;;5034536;28;20076;-85
2022/06/18 08:57:55;;;;;;;11.32;3.38;;;26.20;63.80;;;;;;5019386;28;20050;-84
2022/06/18 09:00:45;;;;;;;10.63;2.80;;;26.30;63.70;;;;;;5029981;28;20107;-84
2022/06/18 09:03:16;;;;;;;8.07;3.25;;;26.30;63.50;;;;;;5023932;28;20100;-85
2022/06/18 09:06:03;;;;;;;8.70;3.10;;;26.40;63.40;;;;;;5024516;28;20081;-84
2022/06/18 09:08:54;;;;;;;7.68;2.70;;;26.50;63.20;;;;;;5029323;28;20103;-84
2022/06/18 09:11:27;;;;;;;9.05;3.20;;;26.60;63.10;;;;;;5032876;28;20045;-84
2022/06/18 09:13:57;;;;;;;;;;;26.70;63.00;;;;;;5034284;28;20049;-84
2022/06/18 09:16:32;;;;;;;6.88;3.03;;;26.80;62.80;;;;;;5018300;28;19921;-85
2022/06/18 09:19:03;;;;;;;7.22;3.22;;;26.90;62.70;;;;;;5029439;28;20052;-85
2022/06/18 09:21:53;;;;;;;9.48;3.13;;;27.00;62.50;;;;;;5028449;28;20524;-84
2022/06/18 09:24:37;;;;;;;9.00;3.33;;;27.10;62.40;;;;;;5031311;28;20067;-85
2022/06/18 09:27:07;;;;;;;8.40;3.30;;;27.20;62.20;;;;;;5024575;28;20112;-84
2022/06/18 09:30:02;;;;;;;6.63;3.00;;;27.30;62.10;;;;;;5022876;28;20049;-85
2022/06/18 09:32:48;;;;;;;8.07;3.38;;;27.40;61.90;;;;;;5029138;28;20532;-85
2022/06/18 09:35:20;;;;;;;9.77;3.55;;;27.50;61.70;;;;;;5031162;28;20506;-85
2022/06/18 09:38:04;;;;;;;6.77;3.10;;;27.60;61.50;;;;;;5017651;28;20045;-85
2022/06/18 09:40:35;;;;;;;9.35;3.17;;;27.60;61.30;;;;;;5018335;28;20476;-85
2022/06/18 09:43:49;;;;;;;8.27;3.10;;;27.80;61.00;;;;;;5017472;28;20050;-85
2022/06/18 09:46:24;;;;;;;10.65;3.65;;;27.90;60.80;;;;;;5010008;28;20057;-84
2022/06/18 09:48:52;;;;;;;11.88;3.50;;;27.90;60.60;;;;;;5007354;28;20486;-87
2022/06/18 09:51:52;;;;;;;9.55;3.15;;;28.10;60.50;;;;;;5005475;28;20534;-85
2022/06/18 09:54:21;;;;;;;11.15;3.72;;;28.20;60.20;;;;;;5008964;28;20515;-86
2022/06/18 09:56:54;;;;;;;10.95;3.40;;;28.30;60.00;;;;;;5006256;28;20069;-85
2022/06/18 09:59:30;;;;;;;13.73;3.33;;;28.40;59.70;;;;;;5009012;28;20046;-85
2022/06/18 10:01:58;;;;;;;11.25;3.92;;;28.40;59.60;;;;;;5006437;28;20507;-85
2022/06/18 10:07:27;;;;;;;10.05;3.25;;;28.60;59.30;;;;;;5009312;28;20050;-85
2022/06/18 10:10:00;;;;;;;6.40;3.47;;;28.70;59.10;;;;;;5012155;28;20053;-84
2022/06/18 10:12:33;;;;;;;8.43;3.33;;;28.80;58.90;;;;;;5010346;28;20046;-85
2022/06/18 10:15:04;;;;;;;8.48;3.47;;;28.90;58.80;;;;;;5006023;28;20053;-87
2022/06/18 10:17:34;;;;;;;10.75;3.42;;;29.00;58.70;;;;;;5008645;28;20046;-86
2022/06/18 10:20:10;;;;;;;6.35;2.97;;;29.10;58.60;;;;;;5005578;28;20419;-86
2022/06/18 10:23:01;;;;;;;6.50;2.78;;;29.20;58.40;;;;;;5028113;28;20053;-86
2022/06/18 10:25:50;;;;;;;7.88;3.20;;;29.30;58.30;;;;;;5014751;28;20115;-86
2022/06/18 10:28:38;;;;;;;6.85;3.13;;;29.40;58.10;;;;;;5015915;28;20103;-85
2022/06/18 10:31:24;;;;;;;9.68;3.00;;;29.50;58.00;;;;;;5030260;28;20104;-86
2022/06/18 10:34:23;;;;;;;11.23;3.50;;;29.60;57.80;;;;;;5018004;28;20434;-86
2022/06/18 10:37:15;;;;;;;9.73;3.22;;;29.60;57.70;;;;;;5015844;28;20057;-86
2022/06/18 10:40:05;;;;;;;8.60;3.22;;;29.80;57.60;;;;;;5012160;28;20042;-85
2022/06/18 10:42:53;;;;;;;7.25;2.95;;;29.90;57.40;;;;;;5031067;28;20060;-86
2022/06/18 10:45:44;;;;;;;6.30;3.08;;;29.90;57.20;;;;;;5019575;28;20506;-86
2022/06/18 10:48:20;;;;;;;6.53;3.13;;;30.10;57.00;;;;;;5019369;28;20054;-86
2022/06/18 10:50:50;;;;;;;8.25;2.95;;;30.20;56.80;;;;;;5018711;28;20054;-86
2022/06/18 10:53:20;;;;;;;6.82;2.92;;;30.20;56.60;;;;;;5021455;28;20528;-86
2022/06/18 10:56:05;;;;;;;8.88;2.92;;;30.30;56.40;;;;;;5030422;28;20045;-87
2022/06/18 10:58:32;;;;;;;7.40;2.90;;;30.40;56.20;;;;;;5015619;28;20103;-87
2022/06/18 11:01:11;;;;;;;8.75;2.83;;;30.40;56.10;;;;;;5030615;28;20053;-87
2022/06/18 11:03:38;;;;;;;7.78;3.20;;;30.50;55.90;;;;;;5028546;28;20050;-86
2022/06/18 11:06:13;;;;;;;7.32;3.10;;;30.60;55.70;;;;;;5030026;28;20061;-85
2022/06/18 11:08:53;;;;;;;7.35;2.80;;;30.70;55.60;;;;;;5030049;28;20128;-86
2022/06/18 11:11:24;;;;;;;8.80;3.25;;;30.80;55.40;;;;;;5030088;28;20061;-87
2022/06/18 11:13:51;;;;;;;8.75;2.42;;;30.90;55.30;;;;;;5022124;28;20037;-86
2022/06/18 11:16:28;;;;;;;7.30;2.83;;;31.00;55.10;;;;;;5030943;28;20062;-86
2022/06/18 11:19:00;;;;;;;6.63;2.65;;;31.10;54.90;;;;;;5028577;28;20108;-86
2022/06/18 11:21:36;;;;;;;7.30;2.83;;;31.10;54.80;;;;;;5030010;28;20053;-87
2022/06/18 11:24:05;;;;;;;10.30;2.92;;;31.20;54.60;;;;;;5030829;28;20080;-86
2022/06/18 11:26:55;;;;;;;11.85;2.95;;;31.30;54.50;;;;;;5030592;28;20108;-86
2022/06/18 11:29:27;;;;;;;8.20;2.78;;;31.40;54.20;;;;;;5029656;28;20468;-87
2022/06/18 11:31:58;;;;;;;7.28;3.05;;;31.40;54.00;;;;;;5030370;28;20460;-86
2022/06/18 11:34:28;;;;;;;7.30;2.88;;;31.50;53.90;;;;;;5014969;28;20065;-86
2022/06/18 11:36:58;;;;;;;4.85;2.80;;;31.60;53.70;;;;;;5028651;28;20107;-86
2022/06/18 11:39:36;;;;;;;6.85;2.90;;;31.60;53.50;;;;;;5029497;28;20045;-86
2022/06/18 11:42:30;;;;;;;9.75;2.85;;;31.70;53.20;;;;;;5028939;28;20187;-86
2022/06/18 11:45:14;;;;;;;9.15;2.65;;;31.80;53.00;;;;;;5029036;28;20103;-87
2022/06/18 11:47:49;;;;;;;6.25;2.65;;;31.80;52.70;;;;;;5029417;28;20052;-86
2022/06/18 11:50:41;;;;;;;10.45;2.75;;;31.90;52.50;;;;;;5030509;28;20050;-86
2022/06/18 11:53:16;;;;;;;8.80;2.80;;;32.00;52.30;;;;;;5030462;28;20045;-87
2022/06/18 11:55:48;;;;;;;7.13;2.60;;;32.00;52.00;;;;;;5030545;28;20053;-87
2022/06/18 11:58:23;;;;;;;7.40;2.88;;;32.10;51.80;;;;;;5030579;28;20107;-88
2022/06/18 12:00:56;;;;;;;8.20;2.72;;;32.20;51.60;;;;;;5032304;28;20050;-86
2022/06/18 12:03:48;;;;;;;8.32;2.83;;;32.20;51.20;;;;;;5029563;28;20050;-86
2022/06/18 12:06:34;;;;;;;7.38;2.50;;;32.30;50.90;;;;;;5030288;28;20122;-86
2022/06/18 12:09:21;;;;;;;5.25;2.20;;;32.30;50.60;;;;;;5029079;28;20072;-87
2022/06/18 12:12:01;;;;;;;7.93;2.78;;;32.40;50.40;;;;;;5030256;28;20050;-86
2022/06/18 12:14:33;;;;;;;5.78;2.88;;;32.40;50.10;;;;;;5030251;28;20103;-87
2022/06/18 12:17:06;;;;;;;5.55;2.03;;;32.40;49.90;;;;;;5029999;28;20053;-86
2022/06/18 12:19:33;;;;;;;;;;;32.60;49.60;;;;;;5029238;28;20042;-87
2022/06/18 12:22:11;;;;;;;8.07;2.65;;;32.60;49.50;;;;;;5030492;28;20385;-86
2022/06/18 12:24:55;;;;;;;6.03;2.22;;;32.60;49.20;;;;;;5029986;28;20045;-86
2022/06/18 12:27:26;;;;;;;8.20;2.55;;;32.70;48.90;;;;;;5028766;28;20115;-87
2022/06/18 12:30:15;;;;;;;11.98;2.55;;;32.70;48.70;;;;;;5030188;28;20506;-86
2022/06/18 12:32:56;;;;;;;6.25;2.15;;;32.80;48.40;;;;;;5030042;28;20473;-87
2022/06/18 12:35:29;;;;;;;6.35;2.50;;;32.80;48.20;;;;;;5030045;28;20045;-87
2022/06/18 12:38:05;;;;;;;7.03;2.33;;;32.90;47.90;;;;;;5030087;28;20049;-87
2022/06/18 12:40:32;;;;;;;5.97;1.90;;;32.90;47.70;;;;;;5015240;28;20123;-87
2022/06/18 12:43:08;;;;;;;6.85;2.28;;;33.00;47.60;;;;;;5031443;28;20461;-86
2022/06/18 12:46:00;;;;;;;9.05;2.53;;;33.00;47.40;;;;;;5031167;28;20045;-87
2022/06/18 12:48:57;;;;;;;5.35;2.20;;;33.10;47.20;;;;;;5029166;28;20115;-86
2022/06/18 12:51:51;;;;;;;7.53;2.17;;;33.20;47.00;;;;;;5030299;28;20092;-87
2022/06/18 12:54:49;;;;;;;6.75;2.20;;;33.20;46.90;;;;;;5029943;28;20050;-87
2022/06/18 12:57:39;;;;;;;8.90;2.58;;;33.30;46.70;;;;;;5029774;28;20472;-86
2022/06/18 13:00:19;;;;;;;5.85;2.00;;;33.30;46.60;;;;;;5031625;28;20049;-88
2022/06/18 13:02:58;;;;;;;5.75;2.13;;;33.30;46.50;;;;;;5031932;28;20124;-88
2022/06/18 13:05:43;;;;;;;6.68;1.95;;;33.40;46.40;;;;;;5033423;28;20102;-87
2022/06/18 13:08:29;;;;;;;8.43;2.10;;;33.40;46.30;;;;;;5033400;28;20132;-86
2022/06/18 13:11:37;;;;;;;6.85;2.22;;;33.50;46.20;;;;;;5033371;28;20498;-86
2022/06/18 13:14:20;;;;;;;7.10;2.20;;;33.50;46.10;;;;;;5022073;28;20052;-87
2022/06/18 13:17:07;;;;;;;10.05;2.60;;;33.60;45.90;;;;;;5033271;28;20484;-86
2022/06/18 13:19:45;;;;;;;7.03;2.28;;;33.60;45.80;;;;;;5018430;28;20092;-88
2022/06/18 13:22:12;;;;;;;5.95;2.40;;;33.70;45.80;;;;;;5033263;28;20076;-86
2022/06/18 13:28:10;;;;;;;6.55;2.40;;;33.80;45.60;;;;;;5034121;28;20057;-87
2022/06/18 13:30:57;;;;;;;5.95;2.10;;;33.80;45.60;;;;;;5032602;28;20050;-87
2022/06/18 13:33:27;;;;;;;5.53;1.92;;;33.80;45.40;;;;;;5033101;28;20498;-87
2022/06/18 13:36:03;;;;;;;8.85;2.00;;;33.90;45.40;;;;;;5032660;28;20572;-87